Terminal Aerodrome Forecast
Issued by NWS Binghamton, NY

Home | Current Version | Previous Version | Text Only | Print | Product List | Glossary On
Versions: 1 2 3 4 5 6 7 8 9 10 11 12 13 14 15 16 17 18 19 20 21 22 23
000
FTUS41 KBGM 261700
TAFAVP
TAF
KAVP 261730Z 2618/2718 05007KT 5SM -SN OVC025
      TEMPO 2618/2621 1SM -SN
     FM270100 04005KT 1SM -SN OVC025
     FM271200 34012G18KT 2SM -SN OVC025=

USA.gov is the U.S. government's official web portal to all federal, state and local government web resources and services.